Airfield :
LOGIN :

Register | Disclaimer

   EN    FR    IT 

 










Legend :    VFR   Marginal VFR   IFR   Intensive IFR   Very Intensive IFR
Visi :
Ceiling :
>= 8 km
>= 3000ft
5 to 8 km
1000 to 3000 ft
1500m to 5 km
500 to 1000 ft
800 to 1500m
200 to 500 ft
< 800m
< 200 ft
Symbols :   Thunderstorms  Fog  Heavy snow  Heavy precipitations  Wind > 20 kt
SIGMETs :     Misc.  Thunderstorms  Icing  Turbulence  Mountain Waves  Volcanic Ashes







- Airport Elevation : 529 ft
- IATA code : CHR
- Download approach charts


LFLX - Chateauroux

CURRENT METAR :
  • 260730Z AUTO 21015KT 9999 SCT021 BKN150 11/06 Q1014 NOSIG

EXPIRED METARs :
  • 260700Z AUTO 21015KT 9999 BKN018 BKN150 10/06 Q1013
  • 260630Z AUTO 19008KT 9999 NSC 08/06 Q1013
  • 260600Z AUTO 18008KT 9999 BKN035 OVC160 08/06 Q1013
  • 260530Z AUTO 19011KT 9999 BKN027 BKN038 OVC170 08/05 Q1012
  • 260500Z AUTO 17009KT 9999 FEW030 BKN140 BKN160 07/05 Q1012 TEMPO 4000 BR
  • 260430Z AUTO 17006KT CAVOK 06/04 Q1011 TEMPO 4000 BR

TAF TAF LFLX
Valid from the 26 at 06:00 until the 27 at 12:00 UTC


260500Z 2606/2712 21010KT 9999 SCT020
TEMPO 2610/2619 23010G20KT 4000 -SHRA BKN020TCU
PROB30
TEMPO 2616/2619 25015G30KT TSRA SCT020CB
BECMG 2623/2701 BKN012
TEMPO 2703/2706 24015G25KT RA BKN008
BECMG 2706/2708 BKN025
TEMPO 2708/2712 26015G30KT 4000 SHRA BKN025TCU
No reported NOTAMs for that airfield.



MET'MAP, your aeronautical weather chart ! - Copyright ORBIFLY December 2007 - Disclaimer

ORBIFLY MET'MAP TEAM :

Programming & Development : Alexandra Zaïnal
Concept & Development : Baudouin d'Aumeries
Co-Development & Prog : Marc-Olivier Méhu
Technical & hardware support : Manuel Goepfert

Contact : metmap@orbifly.com




SOURCES & CREDITS :

   NOAA